Ballengee, West Virginia
Current Conditions -  °F | °C
As of 6:51 AM on Sunday 25 Jan 2015 (Local Time) from KBKW Reporting Station
Clear Clear  
Wind Chill: 24°   Ceiling: Unl
Heat Index: 29°   Visibility: 7mi
Dew Point: 26°   Wind: 5mph
Humidity: 89%   Direction: 200°SSW
Pressure: 29.79"   Gusts: NA
Location:  37.62°N, 80.74°W
Report Text: KBKW 251151Z AUTO 20004KT 7SM CLR M02/M03 A2979 RMK AO2 SLP116 70003 T10171033 11006 21017 55002
Loading
Personal Weather Stations






























Interactive Weather Map New forecast layout! Learn more

10-Day Weather Forecast

Advertisements
Track Severe Weather on mobile